createdAt,value
2023-05-23T00:02:26.593Z,60.20
2023-05-23T00:04:58.753Z,59.74
2023-05-23T00:07:27.169Z,59.89
2023-05-23T00:09:55.678Z,59.90
2023-05-23T00:12:24.234Z,60.21
2023-05-23T00:14:53.864Z,60.17
2023-05-23T00:17:25.807Z,60.41
2023-05-23T00:19:56.278Z,60.45
2023-05-23T00:22:25.053Z,60.46
2023-05-23T00:24:53.524Z,60.62
2023-05-23T00:27:22.008Z,60.66
2023-05-23T00:29:50.608Z,60.86
2023-05-23T00:32:19.102Z,60.99
2023-05-23T00:34:47.371Z,60.98
2023-05-23T00:37:16.571Z,61.12
2023-05-23T00:39:45.061Z,61.31
2023-05-23T00:42:13.381Z,61.53
2023-05-23T00:44:41.662Z,61.71
2023-05-23T00:47:11.350Z,61.99
2023-05-23T00:49:40.170Z,62.18
2023-05-23T00:52:08.557Z,62.56
2023-05-23T00:54:37.220Z,62.79
2023-05-23T00:57:05.859Z,62.84
2023-05-23T00:59:37.382Z,62.84
2023-05-23T01:02:06.218Z,62.87
2023-05-23T01:04:36.283Z,63.23
2023-05-23T01:07:04.661Z,63.08
2023-05-23T01:09:33.385Z,63.32
2023-05-23T01:12:07.388Z,63.73
2023-05-23T01:14:42.985Z,63.94
2023-05-23T01:17:18.025Z,64.07
2023-05-23T01:20:01.430Z,64.17
2023-05-23T01:22:42.238Z,64.32
2023-05-23T01:25:19.625Z,64.32
2023-05-23T01:28:19.976Z,64.27
2023-05-23T01:30:52.474Z,64.36
2023-05-23T01:33:22.263Z,64.20
2023-05-23T01:35:51.467Z,64.36
2023-05-23T01:38:19.632Z,64.36
2023-05-23T01:40:47.836Z,64.24
2023-05-23T01:43:16.360Z,64.31
2023-05-23T01:45:45.443Z,63.90
2023-05-23T01:48:16.338Z,63.44
2023-05-23T01:50:45.870Z,63.34
2023-05-23T01:53:17.698Z,63.68
2023-05-23T01:55:46.935Z,63.48
2023-05-23T01:58:15.701Z,63.44
2023-05-23T02:00:44.442Z,63.55
2023-05-23T02:03:13.351Z,63.38
2023-05-23T02:05:41.878Z,63.11
2023-05-23T02:08:10.400Z,63.05
2023-05-23T02:10:39.889Z,62.80
2023-05-23T02:13:08.179Z,62.44
2023-05-23T02:15:36.439Z,62.30
2023-05-23T02:18:06.749Z,62.23
2023-05-23T02:20:35.567Z,62.17
2023-05-23T02:23:06.652Z,62.01
2023-05-23T02:25:35.098Z,61.93
2023-05-23T02:28:03.790Z,61.75
2023-05-23T02:30:32.593Z,61.45
2023-05-23T02:33:06.594Z,61.36
2023-05-23T02:35:35.189Z,61.17
2023-05-23T02:38:03.502Z,60.95
2023-05-23T02:40:31.857Z,60.67
2023-05-23T02:43:00.345Z,60.76
2023-05-23T02:45:28.623Z,61.24
2023-05-23T02:47:57.076Z,61.00
2023-05-23T02:50:26.716Z,60.82
2023-05-23T02:52:54.936Z,60.66
2023-05-23T02:55:23.674Z,60.91
2023-05-23T02:57:52.702Z,60.92
2023-05-23T03:00:21.513Z,60.86
2023-05-23T03:02:53.293Z,60.66
2023-05-23T03:05:21.659Z,60.60
2023-05-23T03:07:52.163Z,60.27
2023-05-23T03:10:21.273Z,60.03
2023-05-23T03:12:49.483Z,59.95
2023-05-23T03:15:18.369Z,59.83
2023-05-23T03:17:47.471Z,59.62
2023-05-23T03:20:17.281Z,59.59
2023-05-23T03:22:46.056Z,59.66
2023-05-23T03:25:16.746Z,59.78
2023-05-23T03:27:45.798Z,60.04
2023-05-23T03:30:14.591Z,59.67
2023-05-23T03:32:43.227Z,59.53
2023-05-23T03:35:11.869Z,59.60
2023-05-23T03:37:40.666Z,59.22
2023-05-23T03:40:09.874Z,59.31
2023-05-23T03:42:39.700Z,59.32
2023-05-23T03:45:08.294Z,59.02
2023-05-23T03:47:37.450Z,59.10
2023-05-23T03:50:07.704Z,59.22
2023-05-23T03:52:37.446Z,59.03
2023-05-23T03:55:10.108Z,59.25
2023-05-23T03:57:38.716Z,59.29
2023-05-23T04:00:12.596Z,59.13
2023-05-23T04:02:46.552Z,59.09
2023-05-23T04:05:18.441Z,58.95
2023-05-23T04:07:47.272Z,58.76
2023-05-23T04:10:16.599Z,58.66
2023-05-23T04:12:45.081Z,58.76
2023-05-23T04:15:18.207Z,58.82
2023-05-23T04:17:53.970Z,59.00
2023-05-23T04:20:23.006Z,58.95
2023-05-23T04:22:52.142Z,58.85
2023-05-23T04:25:21.205Z,58.68
2023-05-23T04:28:17.892Z,58.87
2023-05-23T04:30:46.630Z,58.90
2023-05-23T04:33:15.623Z,58.68
2023-05-23T04:35:44.120Z,58.39
2023-05-23T04:38:13.929Z,58.14
2023-05-23T04:40:43.032Z,58.00
2023-05-23T04:43:34.039Z,57.81
2023-05-23T04:46:18.935Z,57.99
2023-05-23T04:48:50.882Z,58.30
2023-05-23T04:51:21.838Z,58.42
2023-05-23T04:53:56.507Z,58.84
2023-05-23T04:56:28.521Z,58.60
2023-05-23T04:58:57.291Z,58.57
2023-05-23T05:01:28.367Z,58.39
2023-05-23T05:03:56.817Z,58.21
2023-05-23T05:06:25.613Z,57.68
2023-05-23T05:08:54.453Z,57.64
2023-05-23T05:11:23.096Z,57.42
2023-05-23T05:13:51.247Z,57.60
2023-05-23T05:16:20.455Z,57.59
2023-05-23T05:18:51.929Z,57.47
2023-05-23T05:21:29.257Z,57.28
2023-05-23T05:24:00.181Z,57.10
2023-05-23T05:26:31.157Z,56.99
2023-05-23T05:28:59.985Z,56.93
2023-05-23T05:31:29.757Z,56.81
2023-05-23T05:33:58.206Z,56.67
2023-05-23T05:36:26.699Z,56.75
2023-05-23T05:38:57.332Z,56.60
2023-05-23T05:41:27.075Z,56.59
2023-05-23T05:43:55.843Z,56.61
2023-05-23T05:46:24.877Z,56.34
2023-05-23T05:48:54.454Z,56.38
2023-05-23T05:51:24.089Z,56.18
2023-05-23T05:53:52.553Z,55.92
2023-05-23T05:56:22.981Z,56.12
2023-05-23T05:58:51.279Z,56.12
2023-05-23T06:01:19.758Z,56.29
2023-05-23T06:03:48.346Z,56.17
2023-05-23T06:06:17.142Z,56.21
2023-05-23T06:08:45.762Z,56.25
2023-05-23T06:11:17.401Z,56.28
2023-05-23T06:13:46.700Z,56.05
2023-05-23T06:16:15.606Z,56.01
2023-05-23T06:18:45.204Z,56.13
2023-05-23T06:21:14.336Z,56.23
2023-05-23T06:23:43.231Z,56.28
2023-05-23T06:26:11.577Z,56.17
2023-05-23T06:28:40.480Z,56.28
2023-05-23T06:31:10.433Z,56.10
2023-05-23T06:33:39.005Z,56.03
2023-05-23T06:36:08.260Z,56.15
2023-05-23T06:38:37.184Z,55.94
2023-05-23T06:41:07.461Z,55.63
2023-05-23T06:43:37.237Z,55.29
2023-05-23T06:46:16.802Z,55.48
2023-05-23T06:48:45.255Z,55.25
2023-05-23T06:51:13.859Z,55.04
2023-05-23T06:53:42.860Z,54.99
2023-05-23T06:56:11.232Z,54.70
2023-05-23T06:58:47.439Z,54.52
2023-05-23T07:01:16.294Z,54.43
2023-05-23T07:03:48.973Z,54.04
2023-05-23T07:06:17.964Z,53.98
2023-05-23T07:08:47.078Z,53.53
2023-05-23T07:11:16.509Z,53.38
2023-05-23T07:13:47.850Z,53.28
2023-05-23T07:16:22.494Z,52.97
2023-05-23T07:19:03.133Z,52.58
2023-05-23T07:21:32.340Z,52.61
2023-05-23T07:24:00.804Z,52.44
2023-05-23T07:26:30.034Z,52.28
2023-05-23T07:28:58.961Z,52.02
2023-05-23T07:31:28.162Z,52.01
2023-05-23T07:33:59.618Z,52.24
2023-05-23T07:36:50.454Z,52.33
2023-05-23T07:39:23.843Z,52.37
2023-05-23T07:41:52.661Z,52.04
2023-05-23T07:44:24.962Z,51.71
2023-05-23T07:46:54.727Z,51.28
2023-05-23T07:49:23.712Z,51.02
2023-05-23T07:51:52.549Z,51.28
2023-05-23T07:54:21.022Z,51.08
2023-05-23T07:56:51.163Z,50.92
2023-05-23T07:59:19.968Z,51.07
2023-05-23T08:01:53.029Z,51.00
2023-05-23T08:04:27.176Z,50.90
2023-05-23T08:09:29.140Z,50.50
2023-05-23T08:11:58.166Z,50.27
2023-05-23T08:14:38.199Z,49.74
2023-05-23T08:17:21.635Z,49.44
2023-05-23T08:19:51.190Z,47.71
2023-05-23T08:22:20.226Z,47.02
2023-05-23T08:24:48.922Z,46.95
2023-05-23T08:27:17.818Z,46.92
2023-05-23T08:29:47.150Z,46.76
2023-05-23T08:32:16.179Z,45.98
2023-05-23T08:34:45.430Z,44.65
2023-05-23T08:37:14.017Z,44.31
2023-05-23T08:39:43.116Z,44.41
2023-05-23T08:42:30.100Z,43.76
2023-05-23T08:44:59.226Z,42.59
2023-05-23T08:47:29.470Z,42.44
2023-05-23T08:50:04.761Z,41.08
2023-05-23T08:52:34.101Z,41.14
2023-05-23T08:55:03.132Z,40.78
2023-05-23T08:57:32.096Z,40.39
2023-05-23T09:00:14.781Z,39.93
2023-05-23T09:02:45.111Z,39.80
2023-05-23T09:05:24.054Z,39.81
2023-05-23T09:07:55.158Z,40.21
2023-05-23T09:10:24.107Z,39.84
2023-05-23T09:12:52.914Z,39.93
2023-05-23T09:15:22.597Z,40.76
2023-05-23T09:17:51.073Z,40.94
2023-05-23T09:20:20.006Z,40.36
2023-05-23T09:22:55.663Z,40.87
2023-05-23T09:25:24.250Z,40.74
2023-05-23T09:27:54.662Z,40.62
2023-05-23T09:30:23.164Z,41.48
2023-05-23T09:33:04.729Z,41.74
2023-05-23T09:35:34.091Z,41.90
2023-05-23T09:38:02.467Z,42.16
2023-05-23T09:40:33.200Z,42.15
2023-05-23T09:43:04.938Z,42.73
2023-05-23T09:45:34.357Z,42.98
2023-05-23T09:48:03.677Z,43.32
2023-05-23T09:50:34.121Z,43.90
2023-05-23T09:53:04.110Z,44.08
2023-05-23T09:55:32.593Z,43.53
2023-05-23T09:58:01.570Z,44.21
2023-05-23T10:00:30.172Z,44.57
2023-05-23T10:03:14.918Z,45.49
2023-05-23T10:05:53.650Z,46.32
2023-05-23T10:08:39.229Z,46.63
2023-05-23T10:11:13.671Z,47.09
2023-05-23T10:13:47.338Z,48.43
2023-05-23T10:16:19.664Z,48.88
2023-05-23T10:18:56.958Z,49.08
2023-05-23T10:21:33.380Z,48.35
2023-05-23T10:24:04.350Z,47.32
2023-05-23T10:26:33.415Z,47.33
2023-05-23T10:29:03.154Z,47.81
2023-05-23T10:31:31.954Z,49.63
2023-05-23T10:34:14.272Z,49.74
2023-05-23T10:37:06.663Z,49.00
2023-05-23T10:40:17.942Z,46.46
2023-05-23T10:42:52.472Z,44.17
2023-05-23T10:45:22.822Z,44.14
2023-05-23T10:47:53.459Z,43.73
2023-05-23T10:50:37.488Z,42.94
2023-05-23T10:53:06.652Z,43.10
2023-05-23T10:55:37.197Z,43.29
2023-05-23T10:58:16.435Z,43.13
2023-05-23T11:00:55.240Z,42.24
2023-05-23T11:03:37.268Z,42.11
2023-05-23T11:06:06.085Z,40.84
2023-05-23T11:08:47.539Z,40.35
2023-05-23T11:11:16.931Z,40.18
2023-05-23T11:13:55.854Z,37.85
2023-05-23T11:16:27.839Z,38.07
2023-05-23T11:19:23.264Z,38.26
2023-05-23T11:21:54.370Z,38.38
2023-05-23T11:24:23.995Z,37.22
2023-05-23T11:27:03.037Z,36.79
2023-05-23T11:29:31.697Z,36.89
2023-05-23T11:32:19.934Z,36.87
2023-05-23T11:34:48.529Z,35.92
2023-05-23T11:37:18.187Z,36.13
2023-05-23T11:39:46.421Z,35.79
2023-05-23T11:42:15.023Z,34.60
2023-05-23T11:44:43.460Z,34.03
2023-05-23T11:47:12.098Z,33.10
2023-05-23T11:49:40.503Z,31.29
2023-05-23T11:52:08.776Z,31.64
2023-05-23T11:54:37.041Z,30.11
2023-05-23T11:57:08.400Z,28.72
2023-05-23T11:59:37.422Z,26.34
2023-05-23T12:02:07.596Z,26.77
2023-05-23T12:04:38.992Z,26.99
2023-05-23T12:07:07.998Z,26.95
2023-05-23T12:09:44.224Z,26.36
2023-05-23T12:12:14.198Z,25.87
2023-05-23T12:14:46.735Z,25.55
2023-05-23T12:17:15.625Z,26.18
2023-05-23T12:19:47.174Z,26.24
2023-05-23T12:22:15.461Z,26.47
2023-05-23T12:24:49.437Z,27.22
2023-05-23T12:27:18.816Z,27.68
2023-05-23T12:29:52.444Z,28.07
2023-05-23T12:32:25.410Z,27.70
2023-05-23T12:34:53.684Z,26.49
2023-05-23T12:37:22.359Z,26.67
2023-05-23T12:39:50.807Z,26.70
2023-05-23T12:42:19.427Z,26.96
2023-05-23T12:44:52.485Z,27.21
2023-05-23T12:47:21.170Z,26.69
2023-05-23T12:49:50.224Z,27.12
2023-05-23T12:52:18.389Z,26.36
2023-05-23T12:54:49.145Z,26.33
2023-05-23T12:57:17.620Z,25.52
2023-05-23T12:59:46.030Z,24.51
2023-05-23T13:02:14.390Z,23.39
2023-05-23T13:04:42.916Z,22.06
2023-05-23T13:07:13.998Z,21.43
2023-05-23T13:09:42.502Z,20.86
2023-05-23T13:12:12.519Z,18.87
2023-05-23T13:14:41.822Z,19.05
2023-05-23T13:17:10.057Z,18.98
2023-05-23T13:19:39.493Z,18.17
2023-05-23T13:22:10.781Z,17.41
2023-05-23T13:24:40.906Z,17.59
2023-05-23T13:27:09.445Z,17.70
2023-05-23T13:29:37.976Z,16.84
2023-05-23T13:32:06.815Z,17.41
2023-05-23T13:34:37.720Z,17.55
2023-05-23T13:37:06.327Z,16.93
2023-05-23T13:39:34.445Z,17.59
2023-05-23T13:42:02.968Z,17.05
2023-05-23T13:44:31.285Z,17.33
2023-05-23T13:47:12.788Z,16.79
2023-05-23T13:49:43.868Z,17.19
2023-05-23T13:52:12.472Z,17.07
2023-05-23T13:54:41.754Z,17.06
2023-05-23T13:57:09.979Z,16.95
2023-05-23T13:59:38.320Z,17.38
2023-05-23T14:02:08.398Z,17.55
2023-05-23T14:04:37.061Z,17.18
2023-05-23T14:07:05.343Z,17.71
2023-05-23T14:09:33.613Z,17.99
2023-05-23T14:12:02.104Z,18.09
2023-05-23T14:14:30.382Z,18.57
2023-05-23T14:16:58.973Z,18.23
2023-05-23T14:19:27.731Z,17.65
2023-05-23T14:21:56.456Z,17.19
2023-05-23T14:24:24.961Z,17.26
2023-05-23T14:26:53.647Z,16.81
2023-05-23T14:29:22.425Z,16.31
2023-05-23T14:31:50.671Z,16.47
2023-05-23T14:34:19.108Z,17.14
2023-05-23T14:36:47.476Z,17.65
2023-05-23T14:39:17.000Z,18.86
2023-05-23T14:41:47.115Z,19.56
2023-05-23T14:44:16.344Z,19.16
2023-05-23T14:46:48.618Z,18.92
2023-05-23T14:49:20.362Z,18.63
2023-05-23T14:51:51.257Z,18.20
2023-05-23T14:54:20.455Z,17.98
2023-05-23T14:56:50.528Z,17.76
2023-05-23T14:59:21.977Z,17.51
2023-05-23T15:01:50.397Z,17.32
2023-05-23T15:04:19.017Z,17.26
2023-05-23T15:06:47.536Z,16.97
2023-05-23T15:09:16.927Z,16.01
2023-05-23T15:11:46.919Z,16.13
2023-05-23T15:14:16.709Z,16.12
2023-05-23T15:16:46.029Z,16.05
2023-05-23T15:19:14.774Z,15.92
2023-05-23T15:21:51.177Z,16.14
2023-05-23T15:24:20.056Z,15.92
2023-05-23T15:26:49.142Z,15.83
2023-05-23T15:29:18.494Z,15.49
2023-05-23T15:31:47.373Z,15.31
2023-05-23T15:34:15.753Z,15.12
2023-05-23T15:36:43.946Z,15.02
2023-05-23T15:39:12.855Z,15.62
2023-05-23T15:41:41.306Z,16.07
2023-05-23T15:44:12.602Z,17.05
2023-05-23T15:46:43.658Z,17.07
2023-05-23T15:49:24.564Z,17.21
2023-05-23T15:51:55.644Z,17.38
2023-05-23T15:54:24.095Z,17.98
2023-05-23T15:56:52.475Z,18.38
2023-05-23T15:59:21.382Z,18.58
2023-05-23T16:01:49.714Z,19.31
2023-05-23T16:04:18.323Z,20.04
2023-05-23T16:06:46.859Z,20.63
2023-05-23T16:09:15.328Z,21.53
2023-05-23T16:11:43.579Z,22.58
2023-05-23T16:14:11.816Z,23.40
2023-05-23T16:16:40.153Z,24.44
2023-05-23T16:19:08.613Z,24.94
2023-05-23T16:21:37.052Z,25.60
2023-05-23T16:24:06.211Z,26.18
2023-05-23T16:26:34.697Z,26.52
2023-05-23T16:29:03.626Z,26.57
2023-05-23T16:31:32.185Z,27.02
2023-05-23T16:34:00.601Z,27.43
2023-05-23T16:36:29.312Z,27.47
2023-05-23T16:38:58.165Z,28.00
2023-05-23T16:41:26.600Z,28.64
2023-05-23T16:43:54.965Z,28.60
2023-05-23T16:46:23.739Z,28.97
2023-05-23T16:48:52.445Z,29.18
2023-05-23T16:51:20.728Z,29.72
2023-05-23T16:53:49.388Z,30.31
2023-05-23T16:56:17.469Z,30.57
2023-05-23T16:58:45.883Z,30.57
2023-05-23T17:01:15.794Z,30.97
2023-05-23T17:03:44.220Z,31.09
2023-05-23T17:06:12.773Z,31.09
2023-05-23T17:08:41.256Z,31.67
2023-05-23T17:11:09.664Z,32.63
2023-05-23T17:13:38.128Z,32.55
2023-05-23T17:16:06.649Z,32.67
2023-05-23T17:18:35.204Z,34.17
2023-05-23T17:21:03.816Z,35.01
2023-05-23T17:23:32.387Z,35.81
2023-05-23T17:26:01.403Z,36.70
2023-05-23T17:28:30.889Z,36.99
2023-05-23T17:30:59.372Z,37.93
2023-05-23T17:33:27.522Z,38.97
2023-05-23T17:35:56.165Z,39.49
2023-05-23T17:38:28.524Z,40.09
2023-05-23T17:40:57.075Z,40.04
2023-05-23T17:43:25.704Z,40.57
2023-05-23T17:45:55.727Z,41.30
2023-05-23T17:48:38.350Z,42.04
2023-05-23T17:51:14.388Z,42.56
2023-05-23T17:53:42.876Z,42.81
2023-05-23T17:56:11.178Z,43.32
2023-05-23T17:58:42.439Z,43.46
2023-05-23T18:01:13.788Z,43.93
2023-05-23T18:03:42.448Z,44.39
2023-05-23T18:06:10.805Z,44.72
2023-05-23T18:08:39.327Z,45.09
2023-05-23T18:11:10.432Z,45.48
2023-05-23T18:13:39.068Z,45.50
2023-05-23T18:16:08.160Z,46.05
2023-05-23T18:18:36.784Z,46.29
2023-05-23T18:21:06.600Z,46.29
2023-05-23T18:23:34.959Z,46.28
2023-05-23T18:26:03.777Z,46.71
2023-05-23T18:28:32.160Z,47.19
2023-05-23T18:31:01.776Z,47.46
2023-05-23T18:33:30.034Z,48.04
2023-05-23T18:35:58.343Z,47.95
2023-05-23T18:38:26.841Z,48.00
2023-05-23T18:40:55.181Z,48.03
2023-05-23T18:43:23.699Z,48.24
2023-05-23T18:45:54.613Z,48.75
2023-05-23T18:48:23.224Z,48.82
2023-05-23T18:50:52.414Z,48.87
2023-05-23T18:53:21.625Z,49.21
2023-05-23T18:55:53.581Z,49.02
2023-05-23T18:58:22.271Z,49.37
2023-05-23T19:00:51.031Z,49.63
2023-05-23T19:03:19.688Z,49.74
2023-05-23T19:05:48.058Z,50.13
2023-05-23T19:08:16.285Z,50.50
2023-05-23T19:10:44.762Z,50.79
2023-05-23T19:13:13.983Z,51.15
2023-05-23T19:15:42.589Z,51.30
2023-05-23T19:18:10.731Z,51.67
2023-05-23T19:20:41.362Z,51.89
2023-05-23T19:23:10.095Z,51.97
2023-05-23T19:25:39.606Z,52.34
2023-05-23T19:28:08.204Z,52.63
2023-05-23T19:30:38.591Z,52.59
2023-05-23T19:33:07.399Z,53.04
2023-05-23T19:35:35.681Z,53.34
2023-05-23T19:38:04.506Z,53.97
2023-05-23T19:40:33.013Z,54.41
2023-05-23T19:43:01.817Z,54.95
2023-05-23T19:45:30.427Z,55.17
2023-05-23T19:47:59.063Z,55.46
2023-05-23T19:50:27.614Z,55.63
2023-05-23T19:52:55.751Z,55.82
2023-05-23T19:55:24.520Z,56.16
2023-05-23T19:57:53.041Z,56.30
2023-05-23T20:00:21.806Z,56.66
2023-05-23T20:02:50.984Z,56.93
2023-05-23T20:05:19.913Z,57.11
2023-05-23T20:07:48.394Z,57.44
2023-05-23T20:10:16.708Z,57.50
2023-05-23T20:12:45.566Z,57.70
2023-05-23T20:15:16.045Z,57.90
2023-05-23T20:17:46.172Z,57.94
2023-05-23T20:20:14.792Z,58.12
2023-05-23T20:22:42.980Z,58.52
2023-05-23T20:25:11.799Z,58.61
2023-05-23T20:27:40.483Z,58.62
2023-05-23T20:30:12.743Z,59.05
2023-05-23T20:32:43.034Z,59.17
2023-05-23T20:35:11.387Z,59.78
2023-05-23T20:37:39.976Z,60.79
2023-05-23T20:40:09.714Z,60.35
2023-05-23T20:42:38.054Z,60.54
2023-05-23T20:45:08.613Z,60.38
2023-05-23T20:47:41.595Z,60.57
2023-05-23T20:50:12.741Z,61.80
2023-05-23T20:52:43.086Z,62.98
2023-05-23T20:55:11.542Z,62.87
2023-05-23T20:57:40.660Z,62.57
2023-05-23T21:00:13.409Z,62.84
2023-05-23T21:02:43.407Z,62.80
2023-05-23T21:05:12.710Z,63.38
2023-05-23T21:07:41.034Z,63.30
2023-05-23T21:10:11.566Z,63.68
2023-05-23T21:12:49.482Z,63.23
2023-05-23T21:15:18.921Z,63.13
2023-05-23T21:17:47.553Z,62.99
2023-05-23T21:20:16.367Z,62.90
2023-05-23T21:22:44.580Z,63.01
2023-05-23T21:25:12.927Z,63.21
2023-05-23T21:27:42.444Z,63.49
2023-05-23T21:30:11.647Z,63.31
2023-05-23T21:32:40.062Z,63.50
2023-05-23T21:35:09.278Z,63.75
2023-05-23T21:37:37.615Z,63.82
2023-05-23T21:40:07.089Z,63.92
2023-05-23T21:42:35.955Z,63.86
2023-05-23T21:45:05.039Z,63.95
2023-05-23T21:47:33.260Z,63.89
2023-05-23T21:50:04.289Z,64.04
2023-05-23T21:52:32.619Z,63.82
2023-05-23T21:55:01.123Z,64.00
2023-05-23T21:57:29.401Z,64.10
2023-05-23T21:59:57.676Z,64.01
2023-05-23T22:02:26.703Z,64.55
2023-05-23T22:04:55.276Z,64.38
2023-05-23T22:07:26.107Z,64.49
2023-05-23T22:09:56.549Z,64.76
2023-05-23T22:14:54.983Z,64.62
2023-05-23T22:17:26.620Z,64.79
2023-05-23T22:19:57.353Z,65.01
2023-05-23T22:22:25.630Z,66.16
2023-05-23T22:24:55.240Z,67.25
2023-05-23T22:27:23.821Z,66.75
2023-05-23T22:29:53.102Z,66.96
2023-05-23T22:32:21.518Z,66.49
2023-05-23T22:34:49.806Z,66.77
2023-05-23T22:37:18.186Z,67.20
2023-05-23T22:39:46.465Z,67.31
2023-05-23T22:42:15.156Z,67.73
2023-05-23T22:44:43.578Z,67.53
2023-05-23T22:47:13.903Z,67.71
2023-05-23T22:49:42.658Z,67.85
2023-05-23T22:52:11.112Z,67.87
2023-05-23T22:54:39.327Z,67.78
2023-05-23T22:57:07.545Z,67.82
2023-05-23T22:59:36.239Z,67.68
2023-05-23T23:02:06.475Z,67.70
2023-05-23T23:04:35.462Z,67.92
2023-05-23T23:07:04.016Z,67.89
2023-05-23T23:09:32.507Z,67.98
2023-05-23T23:12:01.405Z,68.17
2023-05-23T23:14:30.092Z,68.18
2023-05-23T23:16:59.669Z,68.00
2023-05-23T23:19:30.040Z,68.13
2023-05-23T23:21:58.426Z,68.41
2023-05-23T23:24:26.639Z,68.50
2023-05-23T23:26:55.289Z,68.49
2023-05-23T23:29:23.834Z,68.39
2023-05-23T23:31:53.070Z,68.66
2023-05-23T23:34:21.397Z,68.84
2023-05-23T23:36:49.645Z,68.88
2023-05-23T23:39:18.133Z,68.87
2023-05-23T23:41:46.513Z,69.07
2023-05-23T23:44:15.907Z,69.10
2023-05-23T23:46:44.405Z,68.86
2023-05-23T23:49:13.307Z,68.81
2023-05-23T23:51:41.684Z,68.99
2023-05-23T23:54:10.273Z,68.96
2023-05-23T23:56:38.564Z,68.62
2023-05-23T23:59:06.885Z,68.55
